sensor_id;sensor_type;location;lat;lon;timestamp;P1;durP1;ratioP1;P2;durP2;ratioP2
67717;SDS011;54511;47.532;19.180;2023-10-13T00:01:06;7.22;;;4.93;;
67717;SDS011;54511;47.532;19.180;2023-10-13T00:03:36;12.37;;;5.65;;
67717;SDS011;54511;47.532;19.180;2023-10-13T00:06:06;8.93;;;4.35;;
67717;SDS011;54511;47.532;19.180;2023-10-13T00:08:35;7.32;;;4.45;;
67717;SDS011;54511;47.532;19.180;2023-10-13T00:11:03;8.23;;;4.93;;
67717;SDS011;54511;47.532;19.180;2023-10-13T00:13:30;9.48;;;3.80;;
67717;SDS011;54511;47.532;19.180;2023-10-13T00:16:06;14.73;;;5.07;;
67717;SDS011;54511;47.532;19.180;2023-10-13T00:18:35;7.87;;;4.57;;
67717;SDS011;54511;47.532;19.180;2023-10-13T00:21:07;7.45;;;4.07;;
67717;SDS011;54511;47.532;19.180;2023-10-13T00:23:40;6.47;;;4.65;;
67717;SDS011;54511;47.532;19.180;2023-10-13T00:26:17;5.80;;;3.85;;
67717;SDS011;54511;47.532;19.180;2023-10-13T00:28:49;10.98;;;3.95;;
67717;SDS011;54511;47.532;19.180;2023-10-13T00:31:24;5.20;;;3.97;;
67717;SDS011;54511;47.532;19.180;2023-10-13T00:33:57;6.72;;;3.67;;
67717;SDS011;54511;47.532;19.180;2023-10-13T00:36:30;11.07;;;4.43;;
67717;SDS011;54511;47.532;19.180;2023-10-13T00:39:01;9.13;;;3.97;;
67717;SDS011;54511;47.532;19.180;2023-10-13T00:41:32;5.85;;;3.72;;
67717;SDS011;54511;47.532;19.180;2023-10-13T00:44:16;14.73;;;4.87;;
67717;SDS011;54511;47.532;19.180;2023-10-13T00:46:42;9.75;;;4.05;;
67717;SDS011;54511;47.532;19.180;2023-10-13T00:49:11;7.43;;;4.55;;
67717;SDS011;54511;47.532;19.180;2023-10-13T00:51:40;6.68;;;3.78;;
67717;SDS011;54511;47.532;19.180;2023-10-13T00:54:13;8.52;;;4.80;;
67717;SDS011;54511;47.532;19.180;2023-10-13T00:56:43;9.68;;;4.25;;
67717;SDS011;54511;47.532;19.180;2023-10-13T00:59:14;8.43;;;3.95;;
67717;SDS011;54511;47.532;19.180;2023-10-13T01:01:41;4.90;;;3.85;;
67717;SDS011;54511;47.532;19.180;2023-10-13T01:04:09;10.65;;;3.92;;
67717;SDS011;54511;47.532;19.180;2023-10-13T01:06:38;7.00;;;4.28;;
67717;SDS011;54511;47.532;19.180;2023-10-13T01:09:05;5.78;;;4.05;;
67717;SDS011;54511;47.532;19.180;2023-10-13T01:15:01;6.28;;;4.37;;
67717;SDS011;54511;47.532;19.180;2023-10-13T01:17:33;6.87;;;5.30;;
67717;SDS011;54511;47.532;19.180;2023-10-13T01:19:59;5.62;;;3.22;;
67717;SDS011;54511;47.532;19.180;2023-10-13T01:22:26;5.07;;;3.87;;
67717;SDS011;54511;47.532;19.180;2023-10-13T01:24:55;8.93;;;3.92;;
67717;SDS011;54511;47.532;19.180;2023-10-13T01:27:31;6.30;;;3.55;;
67717;SDS011;54511;47.532;19.180;2023-10-13T01:30:03;6.85;;;4.30;;
67717;SDS011;54511;47.532;19.180;2023-10-13T01:32:38;13.50;;;4.55;;
67717;SDS011;54511;47.532;19.180;2023-10-13T01:35:10;9.23;;;3.80;;
67717;SDS011;54511;47.532;19.180;2023-10-13T01:37:37;9.40;;;4.07;;
67717;SDS011;54511;47.532;19.180;2023-10-13T01:40:05;7.62;;;4.68;;
67717;SDS011;54511;47.532;19.180;2023-10-13T01:42:32;5.12;;;3.75;;
67717;SDS011;54511;47.532;19.180;2023-10-13T01:45:02;6.65;;;4.10;;
67717;SDS011;54511;47.532;19.180;2023-10-13T01:47:30;8.57;;;4.18;;
67717;SDS011;54511;47.532;19.180;2023-10-13T01:49:58;8.27;;;3.62;;
67717;SDS011;54511;47.532;19.180;2023-10-13T01:52:31;8.77;;;4.22;;
67717;SDS011;54511;47.532;19.180;2023-10-13T01:54:58;6.65;;;3.33;;
67717;SDS011;54511;47.532;19.180;2023-10-13T01:57:27;11.25;;;4.90;;
67717;SDS011;54511;47.532;19.180;2023-10-13T01:59:54;9.82;;;4.50;;
67717;SDS011;54511;47.532;19.180;2023-10-13T02:02:20;10.13;;;3.15;;
67717;SDS011;54511;47.532;19.180;2023-10-13T02:04:54;8.38;;;4.82;;
67717;SDS011;54511;47.532;19.180;2023-10-13T02:07:22;11.50;;;3.97;;
67717;SDS011;54511;47.532;19.180;2023-10-13T02:09:52;5.35;;;2.47;;
67717;SDS011;54511;47.532;19.180;2023-10-13T02:12:19;7.55;;;4.18;;
67717;SDS011;54511;47.532;19.180;2023-10-13T02:14:52;8.60;;;3.97;;
67717;SDS011;54511;47.532;19.180;2023-10-13T02:17:18;7.43;;;4.03;;
67717;SDS011;54511;47.532;19.180;2023-10-13T02:19:46;14.15;;;3.80;;
67717;SDS011;54511;47.532;19.180;2023-10-13T02:22:13;5.05;;;3.08;;
67717;SDS011;54511;47.532;19.180;2023-10-13T02:24:50;6.45;;;4.32;;
67717;SDS011;54511;47.532;19.180;2023-10-13T02:27:17;5.03;;;3.55;;
67717;SDS011;54511;47.532;19.180;2023-10-13T02:29:49;9.05;;;4.05;;
67717;SDS011;54511;47.532;19.180;2023-10-13T02:32:16;5.28;;;2.87;;
67717;SDS011;54511;47.532;19.180;2023-10-13T02:34:45;12.43;;;4.12;;
67717;SDS011;54511;47.532;19.180;2023-10-13T02:37:11;9.25;;;4.37;;
67717;SDS011;54511;47.532;19.180;2023-10-13T02:39:38;5.18;;;3.92;;
67717;SDS011;54511;47.532;19.180;2023-10-13T02:42:06;8.02;;;4.55;;
67717;SDS011;54511;47.532;19.180;2023-10-13T02:44:33;7.10;;;3.42;;
67717;SDS011;54511;47.532;19.180;2023-10-13T02:47:02;8.82;;;4.95;;
67717;SDS011;54511;47.532;19.180;2023-10-13T02:49:40;9.02;;;3.78;;
67717;SDS011;54511;47.532;19.180;2023-10-13T02:52:08;8.23;;;4.05;;
67717;SDS011;54511;47.532;19.180;2023-10-13T02:54:38;6.78;;;4.45;;
67717;SDS011;54511;47.532;19.180;2023-10-13T02:57:07;9.27;;;4.45;;
67717;SDS011;54511;47.532;19.180;2023-10-13T02:59:34;5.60;;;3.80;;
67717;SDS011;54511;47.532;19.180;2023-10-13T03:02:04;6.10;;;3.33;;
67717;SDS011;54511;47.532;19.180;2023-10-13T03:04:43;5.15;;;3.55;;
67717;SDS011;54511;47.532;19.180;2023-10-13T03:07:10;7.78;;;4.45;;
67717;SDS011;54511;47.532;19.180;2023-10-13T03:09:40;3.87;;;2.72;;
67717;SDS011;54511;47.532;19.180;2023-10-13T03:12:15;6.18;;;3.92;;
67717;SDS011;54511;47.532;19.180;2023-10-13T03:14:43;6.60;;;3.75;;
67717;SDS011;54511;47.532;19.180;2023-10-13T03:17:12;7.05;;;3.85;;
67717;SDS011;54511;47.532;19.180;2023-10-13T03:19:44;7.18;;;3.70;;
67717;SDS011;54511;47.532;19.180;2023-10-13T03:22:15;6.30;;;3.42;;
67717;SDS011;54511;47.532;19.180;2023-10-13T03:24:43;8.57;;;4.12;;
67717;SDS011;54511;47.532;19.180;2023-10-13T03:27:12;7.35;;;4.45;;
67717;SDS011;54511;47.532;19.180;2023-10-13T03:29:42;3.78;;;3.08;;
67717;SDS011;54511;47.532;19.180;2023-10-13T03:32:08;4.70;;;3.15;;
67717;SDS011;54511;47.532;19.180;2023-10-13T03:34:38;9.52;;;3.78;;
67717;SDS011;54511;47.532;19.180;2023-10-13T03:37:19;6.50;;;3.72;;
67717;SDS011;54511;47.532;19.180;2023-10-13T03:40:02;9.90;;;4.00;;
67717;SDS011;54511;47.532;19.180;2023-10-13T03:42:32;8.13;;;3.03;;
67717;SDS011;54511;47.532;19.180;2023-10-13T03:44:59;8.30;;;5.25;;
67717;SDS011;54511;47.532;19.180;2023-10-13T03:47:33;8.20;;;4.40;;
67717;SDS011;54511;47.532;19.180;2023-10-13T03:50:03;5.35;;;3.83;;
67717;SDS011;54511;47.532;19.180;2023-10-13T03:52:42;4.22;;;2.85;;
67717;SDS011;54511;47.532;19.180;2023-10-13T03:55:09;6.30;;;4.18;;
67717;SDS011;54511;47.532;19.180;2023-10-13T03:57:42;7.55;;;3.80;;
67717;SDS011;54511;47.532;19.180;2023-10-13T04:00:11;12.32;;;5.25;;
67717;SDS011;54511;47.532;19.180;2023-10-13T04:02:46;9.68;;;3.97;;
67717;SDS011;54511;47.532;19.180;2023-10-13T04:05:19;8.70;;;5.37;;
67717;SDS011;54511;47.532;19.180;2023-10-13T04:08:03;6.93;;;3.15;;
67717;SDS011;54511;47.532;19.180;2023-10-13T04:10:48;5.68;;;4.07;;
67717;SDS011;54511;47.532;19.180;2023-10-13T04:13:35;5.85;;;3.65;;
67717;SDS011;54511;47.532;19.180;2023-10-13T04:16:19;8.75;;;3.62;;
67717;SDS011;54511;47.532;19.180;2023-10-13T04:19:00;6.95;;;3.90;;
67717;SDS011;54511;47.532;19.180;2023-10-13T04:21:45;6.35;;;4.12;;
67717;SDS011;54511;47.532;19.180;2023-10-13T04:24:25;7.75;;;3.80;;
67717;SDS011;54511;47.532;19.180;2023-10-13T04:27:25;5.10;;;3.72;;
67717;SDS011;54511;47.532;19.180;2023-10-13T04:30:19;5.65;;;3.78;;
67717;SDS011;54511;47.532;19.180;2023-10-13T04:32:52;7.18;;;4.10;;
67717;SDS011;54511;47.532;19.180;2023-10-13T04:35:42;10.90;;;4.97;;
67717;SDS011;54511;47.532;19.180;2023-10-13T04:38:13;5.87;;;3.47;;
67717;SDS011;54511;47.532;19.180;2023-10-13T04:40:59;6.97;;;4.22;;
67717;SDS011;54511;47.532;19.180;2023-10-13T04:43:26;7.43;;;4.15;;
67717;SDS011;54511;47.532;19.180;2023-10-13T04:46:20;12.23;;;4.68;;
67717;SDS011;54511;47.532;19.180;2023-10-13T04:49:00;6.05;;;3.95;;
67717;SDS011;54511;47.532;19.180;2023-10-13T04:51:35;7.07;;;4.32;;
67717;SDS011;54511;47.532;19.180;2023-10-13T04:54:23;9.88;;;4.93;;
67717;SDS011;54511;47.532;19.180;2023-10-13T04:57:00;7.50;;;3.83;;
67717;SDS011;54511;47.532;19.180;2023-10-13T04:59:44;6.15;;;3.90;;
67717;SDS011;54511;47.532;19.180;2023-10-13T05:02:29;4.97;;;3.90;;
67717;SDS011;54511;47.532;19.180;2023-10-13T05:05:10;6.75;;;4.18;;
67717;SDS011;54511;47.532;19.180;2023-10-13T05:07:55;5.93;;;4.25;;
67717;SDS011;54511;47.532;19.180;2023-10-13T05:10:40;10.18;;;4.97;;
67717;SDS011;54511;47.532;19.180;2023-10-13T05:13:26;8.05;;;4.30;;
67717;SDS011;54511;47.532;19.180;2023-10-13T05:16:10;5.97;;;3.12;;
67717;SDS011;54511;47.532;19.180;2023-10-13T05:18:55;5.70;;;4.20;;
67717;SDS011;54511;47.532;19.180;2023-10-13T05:21:39;8.27;;;5.10;;
67717;SDS011;54511;47.532;19.180;2023-10-13T05:24:23;10.98;;;4.93;;
67717;SDS011;54511;47.532;19.180;2023-10-13T05:27:08;5.70;;;3.58;;
67717;SDS011;54511;47.532;19.180;2023-10-13T05:29:55;7.15;;;4.35;;
67717;SDS011;54511;47.532;19.180;2023-10-13T05:32:40;7.85;;;4.43;;
67717;SDS011;54511;47.532;19.180;2023-10-13T05:35:24;12.30;;;5.03;;
67717;SDS011;54511;47.532;19.180;2023-10-13T05:38:09;5.95;;;3.58;;
67717;SDS011;54511;47.532;19.180;2023-10-13T05:40:54;10.23;;;4.50;;
67717;SDS011;54511;47.532;19.180;2023-10-13T05:43:39;6.43;;;3.92;;
67717;SDS011;54511;47.532;19.180;2023-10-13T05:46:25;6.90;;;4.40;;
67717;SDS011;54511;47.532;19.180;2023-10-13T05:49:18;6.22;;;4.28;;
67717;SDS011;54511;47.532;19.180;2023-10-13T05:52:02;12.27;;;4.97;;
67717;SDS011;54511;47.532;19.180;2023-10-13T05:54:44;7.78;;;4.28;;
67717;SDS011;54511;47.532;19.180;2023-10-13T05:57:33;13.23;;;5.15;;
67717;SDS011;54511;47.532;19.180;2023-10-13T06:00:20;9.38;;;4.68;;
67717;SDS011;54511;47.532;19.180;2023-10-13T06:03:10;6.57;;;4.60;;
67717;SDS011;54511;47.532;19.180;2023-10-13T06:06:15;12.70;;;5.12;;
67717;SDS011;54511;47.532;19.180;2023-10-13T06:09:16;10.38;;;5.25;;
67717;SDS011;54511;47.532;19.180;2023-10-13T06:12:00;5.62;;;3.85;;
67717;SDS011;54511;47.532;19.180;2023-10-13T06:15:05;7.10;;;5.03;;
67717;SDS011;54511;47.532;19.180;2023-10-13T06:17:50;6.25;;;4.05;;
67717;SDS011;54511;47.532;19.180;2023-10-13T06:20:39;10.73;;;4.43;;
67717;SDS011;54511;47.532;19.180;2023-10-13T06:24:05;6.32;;;4.70;;
67717;SDS011;54511;47.532;19.180;2023-10-13T06:26:52;12.93;;;4.82;;
67717;SDS011;54511;47.532;19.180;2023-10-13T06:29:38;7.78;;;5.32;;
67717;SDS011;54511;47.532;19.180;2023-10-13T06:32:05;7.47;;;4.37;;
67717;SDS011;54511;47.532;19.180;2023-10-13T06:34:37;12.43;;;5.40;;
67717;SDS011;54511;47.532;19.180;2023-10-13T06:37:11;7.20;;;4.35;;
67717;SDS011;54511;47.532;19.180;2023-10-13T06:39:50;11.98;;;4.65;;
67717;SDS011;54511;47.532;19.180;2023-10-13T06:42:18;8.68;;;3.97;;
67717;SDS011;54511;47.532;19.180;2023-10-13T06:44:46;10.15;;;4.60;;
67717;SDS011;54511;47.532;19.180;2023-10-13T06:47:13;7.95;;;4.75;;
67717;SDS011;54511;47.532;19.180;2023-10-13T06:49:45;7.32;;;4.70;;
67717;SDS011;54511;47.532;19.180;2023-10-13T06:52:17;7.03;;;4.90;;
67717;SDS011;54511;47.532;19.180;2023-10-13T06:54:44;5.95;;;3.87;;
67717;SDS011;54511;47.532;19.180;2023-10-13T06:57:13;10.10;;;5.37;;
67717;SDS011;54511;47.532;19.180;2023-10-13T06:59:40;14.60;;;4.68;;
67717;SDS011;54511;47.532;19.180;2023-10-13T07:02:07;7.35;;;4.97;;
67717;SDS011;54511;47.532;19.180;2023-10-13T07:04:40;9.77;;;5.05;;
67717;SDS011;54511;47.532;19.180;2023-10-13T07:07:07;6.30;;;4.75;;
67717;SDS011;54511;47.532;19.180;2023-10-13T07:09:39;11.80;;;4.82;;
67717;SDS011;54511;47.532;19.180;2023-10-13T07:12:06;5.65;;;4.32;;
67717;SDS011;54511;47.532;19.180;2023-10-13T07:14:45;8.13;;;4.40;;
67717;SDS011;54511;47.532;19.180;2023-10-13T07:17:17;11.65;;;5.03;;
67717;SDS011;54511;47.532;19.180;2023-10-13T07:22:19;5.78;;;4.20;;
67717;SDS011;54511;47.532;19.180;2023-10-13T07:24:50;7.57;;;4.47;;
67717;SDS011;54511;47.532;19.180;2023-10-13T07:27:41;7.15;;;4.57;;
67717;SDS011;54511;47.532;19.180;2023-10-13T07:30:10;17.02;;;5.10;;
67717;SDS011;54511;47.532;19.180;2023-10-13T07:32:40;10.63;;;6.18;;
67717;SDS011;54511;47.532;19.180;2023-10-13T07:35:10;7.97;;;4.03;;
67717;SDS011;54511;47.532;19.180;2023-10-13T07:37:41;13.48;;;5.43;;
67717;SDS011;54511;47.532;19.180;2023-10-13T07:40:11;12.43;;;5.47;;
67717;SDS011;54511;47.532;19.180;2023-10-13T07:43:06;10.35;;;4.65;;
67717;SDS011;54511;47.532;19.180;2023-10-13T07:46:12;7.93;;;4.90;;
67717;SDS011;54511;47.532;19.180;2023-10-13T07:49:19;8.63;;;5.37;;
67717;SDS011;54511;47.532;19.180;2023-10-13T07:52:32;6.93;;;4.55;;
67717;SDS011;54511;47.532;19.180;2023-10-13T07:55:25;8.20;;;5.25;;
67717;SDS011;54511;47.532;19.180;2023-10-13T07:58:37;6.60;;;4.22;;
67717;SDS011;54511;47.532;19.180;2023-10-13T08:01:49;12.82;;;6.40;;
67717;SDS011;54511;47.532;19.180;2023-10-13T08:05:02;14.20;;;5.50;;
67717;SDS011;54511;47.532;19.180;2023-10-13T08:08:10;9.60;;;4.93;;
67717;SDS011;54511;47.532;19.180;2023-10-13T08:11:22;12.03;;;4.40;;
67717;SDS011;54511;47.532;19.180;2023-10-13T08:14:50;11.12;;;4.68;;
67717;SDS011;54511;47.532;19.180;2023-10-13T08:18:18;8.52;;;4.80;;
67717;SDS011;54511;47.532;19.180;2023-10-13T08:21:27;5.95;;;4.25;;
67717;SDS011;54511;47.532;19.180;2023-10-13T08:24:37;11.23;;;5.68;;
67717;SDS011;54511;47.532;19.180;2023-10-13T08:27:19;12.27;;;4.97;;
67717;SDS011;54511;47.532;19.180;2023-10-13T08:31:02;9.90;;;5.32;;
67717;SDS011;54511;47.532;19.180;2023-10-13T08:34:08;7.87;;;4.75;;
67717;SDS011;54511;47.532;19.180;2023-10-13T08:36:55;14.60;;;5.82;;
67717;SDS011;54511;47.532;19.180;2023-10-13T08:40:06;15.00;;;6.32;;
67717;SDS011;54511;47.532;19.180;2023-10-13T08:43:59;10.73;;;7.22;;
67717;SDS011;54511;47.532;19.180;2023-10-13T08:47:06;7.22;;;5.32;;
67717;SDS011;54511;47.532;19.180;2023-10-13T08:50:13;9.23;;;5.35;;
67717;SDS011;54511;47.532;19.180;2023-10-13T08:53:23;6.05;;;3.95;;
67717;SDS011;54511;47.532;19.180;2023-10-13T08:56:31;12.60;;;6.45;;
67717;SDS011;54511;47.532;19.180;2023-10-13T09:00:18;15.90;;;5.37;;
67717;SDS011;54511;47.532;19.180;2023-10-13T09:03:56;11.48;;;5.43;;
67717;SDS011;54511;47.532;19.180;2023-10-13T09:07:24;9.27;;;5.18;;
67717;SDS011;54511;47.532;19.180;2023-10-13T09:10:57;6.85;;;4.72;;
67717;SDS011;54511;47.532;19.180;2023-10-13T09:14:35;7.80;;;5.28;;
67717;SDS011;54511;47.532;19.180;2023-10-13T09:18:06;10.48;;;6.18;;
67717;SDS011;54511;47.532;19.180;2023-10-13T09:21:14;10.35;;;5.60;;
67717;SDS011;54511;47.532;19.180;2023-10-13T09:24:44;8.05;;;5.15;;
67717;SDS011;54511;47.532;19.180;2023-10-13T09:27:30;11.65;;;6.12;;
67717;SDS011;54511;47.532;19.180;2023-10-13T09:30:42;9.73;;;5.68;;
67717;SDS011;54511;47.532;19.180;2023-10-13T09:36:37;9.45;;;5.60;;
67717;SDS011;54511;47.532;19.180;2023-10-13T09:40:07;9.18;;;5.95;;
67717;SDS011;54511;47.532;19.180;2023-10-13T09:43:36;10.98;;;4.25;;
67717;SDS011;54511;47.532;19.180;2023-10-13T09:46:44;6.93;;;3.35;;
67717;SDS011;54511;47.532;19.180;2023-10-13T09:49:13;8.45;;;5.10;;
67717;SDS011;54511;47.532;19.180;2023-10-13T09:51:58;11.70;;;6.45;;
67717;SDS011;54511;47.532;19.180;2023-10-13T09:54:36;6.43;;;4.12;;
67717;SDS011;54511;47.532;19.180;2023-10-13T09:57:07;9.05;;;4.40;;
67717;SDS011;54511;47.532;19.180;2023-10-13T09:59:42;7.28;;;4.07;;
67717;SDS011;54511;47.532;19.180;2023-10-13T10:02:17;11.70;;;5.57;;
67717;SDS011;54511;47.532;19.180;2023-10-13T10:04:52;6.53;;;4.07;;
67717;SDS011;54511;47.532;19.180;2023-10-13T10:07:37;10.45;;;4.65;;
67717;SDS011;54511;47.532;19.180;2023-10-13T10:10:05;7.37;;;4.22;;
67717;SDS011;54511;47.532;19.180;2023-10-13T10:12:36;9.90;;;3.37;;
67717;SDS011;54511;47.532;19.180;2023-10-13T10:15:09;6.97;;;3.83;;
67717;SDS011;54511;47.532;19.180;2023-10-13T10:17:45;7.65;;;4.30;;
67717;SDS011;54511;47.532;19.180;2023-10-13T10:20:16;11.82;;;3.87;;
67717;SDS011;54511;47.532;19.180;2023-10-13T10:23:05;11.73;;;4.53;;
67717;SDS011;54511;47.532;19.180;2023-10-13T10:25:37;7.35;;;4.35;;
67717;SDS011;54511;47.532;19.180;2023-10-13T10:28:09;11.20;;;4.90;;
67717;SDS011;54511;47.532;19.180;2023-10-13T10:30:41;6.87;;;4.37;;
67717;SDS011;54511;47.532;19.180;2023-10-13T10:33:09;7.75;;;4.78;;
67717;SDS011;54511;47.532;19.180;2023-10-13T10:35:41;7.97;;;4.78;;
67717;SDS011;54511;47.532;19.180;2023-10-13T10:38:12;10.52;;;4.93;;
67717;SDS011;54511;47.532;19.180;2023-10-13T10:40:51;12.65;;;4.62;;
67717;SDS011;54511;47.532;19.180;2023-10-13T10:43:18;7.57;;;4.18;;
67717;SDS011;54511;47.532;19.180;2023-10-13T10:45:46;6.28;;;3.75;;
67717;SDS011;54511;47.532;19.180;2023-10-13T10:48:15;10.73;;;4.12;;
67717;SDS011;54511;47.532;19.180;2023-10-13T10:50:53;6.55;;;4.00;;
67717;SDS011;54511;47.532;19.180;2023-10-13T10:53:21;8.30;;;3.70;;
67717;SDS011;54511;47.532;19.180;2023-10-13T10:56:03;18.05;;;4.53;;
67717;SDS011;54511;47.532;19.180;2023-10-13T10:58:34;7.85;;;4.30;;
67717;SDS011;54511;47.532;19.180;2023-10-13T11:01:09;8.15;;;4.03;;
67717;SDS011;54511;47.532;19.180;2023-10-13T11:03:38;8.27;;;4.20;;
67717;SDS011;54511;47.532;19.180;2023-10-13T11:06:12;11.57;;;4.40;;
67717;SDS011;54511;47.532;19.180;2023-10-13T11:08:44;5.40;;;2.95;;
67717;SDS011;54511;47.532;19.180;2023-10-13T11:11:16;6.35;;;3.92;;
67717;SDS011;54511;47.532;19.180;2023-10-13T11:13:55;9.40;;;4.03;;
67717;SDS011;54511;47.532;19.180;2023-10-13T11:16:45;8.48;;;4.15;;
67717;SDS011;54511;47.532;19.180;2023-10-13T11:19:16;9.85;;;4.62;;
67717;SDS011;54511;47.532;19.180;2023-10-13T11:21:47;7.55;;;3.92;;
67717;SDS011;54511;47.532;19.180;2023-10-13T11:24:15;8.73;;;3.30;;
67717;SDS011;54511;47.532;19.180;2023-10-13T11:26:43;6.05;;;3.67;;
67717;SDS011;54511;47.532;19.180;2023-10-13T11:29:15;5.87;;;3.12;;
67717;SDS011;54511;47.532;19.180;2023-10-13T11:31:44;7.82;;;4.00;;
67717;SDS011;54511;47.532;19.180;2023-10-13T11:34:15;6.30;;;3.30;;
67717;SDS011;54511;47.532;19.180;2023-10-13T11:36:44;12.93;;;3.75;;
67717;SDS011;54511;47.532;19.180;2023-10-13T11:39:12;10.90;;;3.03;;
67717;SDS011;54511;47.532;19.180;2023-10-13T11:41:44;5.23;;;3.00;;
67717;SDS011;54511;47.532;19.180;2023-10-13T11:44:19;12.43;;;4.37;;
67717;SDS011;54511;47.532;19.180;2023-10-13T11:46:57;13.32;;;3.42;;
67717;SDS011;54511;47.532;19.180;2023-10-13T11:49:53;7.00;;;3.42;;
67717;SDS011;54511;47.532;19.180;2023-10-13T11:54:54;7.47;;;3.35;;
67717;SDS011;54511;47.532;19.180;2023-10-13T11:57:21;4.82;;;3.12;;
67717;SDS011;54511;47.532;19.180;2023-10-13T11:59:49;7.37;;;3.95;;
67717;SDS011;54511;47.532;19.180;2023-10-13T12:02:19;8.65;;;3.42;;
67717;SDS011;54511;47.532;19.180;2023-10-13T12:05:05;8.23;;;3.45;;
67717;SDS011;54511;47.532;19.180;2023-10-13T12:07:41;6.00;;;2.90;;
67717;SDS011;54511;47.532;19.180;2023-10-13T12:10:14;5.40;;;3.05;;
67717;SDS011;54511;47.532;19.180;2023-10-13T12:12:47;7.07;;;2.90;;
67717;SDS011;54511;47.532;19.180;2023-10-13T12:15:18;6.20;;;3.33;;
67717;SDS011;54511;47.532;19.180;2023-10-13T12:18:02;12.55;;;3.87;;
67717;SDS011;54511;47.532;19.180;2023-10-13T12:20:42;9.85;;;4.22;;
67717;SDS011;54511;47.532;19.180;2023-10-13T12:23:12;6.67;;;3.30;;
67717;SDS011;54511;47.532;19.180;2023-10-13T12:28:20;6.22;;;3.62;;
67717;SDS011;54511;47.532;19.180;2023-10-13T12:30:48;7.70;;;2.80;;
67717;SDS011;54511;47.532;19.180;2023-10-13T12:33:17;7.35;;;3.33;;
67717;SDS011;54511;47.532;19.180;2023-10-13T12:35:54;5.93;;;2.92;;
67717;SDS011;54511;47.532;19.180;2023-10-13T12:38:34;4.18;;;2.35;;
67717;SDS011;54511;47.532;19.180;2023-10-13T12:41:39;6.87;;;2.97;;
67717;SDS011;54511;47.532;19.180;2023-10-13T12:44:25;5.00;;;3.12;;
67717;SDS011;54511;47.532;19.180;2023-10-13T12:47:10;4.12;;;2.85;;
67717;SDS011;54511;47.532;19.180;2023-10-13T12:49:54;6.28;;;3.15;;
67717;SDS011;54511;47.532;19.180;2023-10-13T12:52:30;5.57;;;2.83;;
67717;SDS011;54511;47.532;19.180;2023-10-13T12:54:58;4.10;;;2.67;;
67717;SDS011;54511;47.532;19.180;2023-10-13T12:57:33;6.43;;;3.83;;
67717;SDS011;54511;47.532;19.180;2023-10-13T13:00:07;6.65;;;3.75;;
67717;SDS011;54511;47.532;19.180;2023-10-13T13:02:46;8.98;;;3.80;;
67717;SDS011;54511;47.532;19.180;2023-10-13T13:05:17;6.75;;;3.47;;
67717;SDS011;54511;47.532;19.180;2023-10-13T13:07:48;6.18;;;3.47;;
67717;SDS011;54511;47.532;19.180;2023-10-13T13:10:19;5.85;;;3.22;;
67717;SDS011;54511;47.532;19.180;2023-10-13T13:12:55;5.00;;;2.22;;
67717;SDS011;54511;47.532;19.180;2023-10-13T13:15:22;5.97;;;3.35;;
67717;SDS011;54511;47.532;19.180;2023-10-13T13:17:52;12.52;;;3.92;;
67717;SDS011;54511;47.532;19.180;2023-10-13T13:20:19;8.48;;;3.17;;
67717;SDS011;54511;47.532;19.180;2023-10-13T13:22:53;4.15;;;2.37;;
67717;SDS011;54511;47.532;19.180;2023-10-13T13:25:20;6.10;;;2.47;;
67717;SDS011;54511;47.532;19.180;2023-10-13T13:27:51;7.50;;;3.05;;
67717;SDS011;54511;47.532;19.180;2023-10-13T13:30:21;4.62;;;2.75;;
67717;SDS011;54511;47.532;19.180;2023-10-13T13:32:48;4.97;;;2.28;;
67717;SDS011;54511;47.532;19.180;2023-10-13T13:35:19;5.75;;;2.35;;
67717;SDS011;54511;47.532;19.180;2023-10-13T13:37:46;6.15;;;2.10;;
67717;SDS011;54511;47.532;19.180;2023-10-13T13:40:13;5.55;;;2.83;;
67717;SDS011;54511;47.532;19.180;2023-10-13T13:42:41;4.70;;;1.90;;
67717;SDS011;54511;47.532;19.180;2023-10-13T13:45:11;5.22;;;2.08;;
67717;SDS011;54511;47.532;19.180;2023-10-13T13:47:47;3.20;;;2.03;;
67717;SDS011;54511;47.532;19.180;2023-10-13T13:50:19;4.95;;;2.50;;
67717;SDS011;54511;47.532;19.180;2023-10-13T13:52:52;4.28;;;2.50;;
67717;SDS011;54511;47.532;19.180;2023-10-13T13:55:21;7.75;;;2.67;;
67717;SDS011;54511;47.532;19.180;2023-10-13T13:57:48;6.03;;;2.53;;
67717;SDS011;54511;47.532;19.180;2023-10-13T14:00:17;6.10;;;2.78;;
67717;SDS011;54511;47.532;19.180;2023-10-13T14:02:50;4.47;;;2.60;;
67717;SDS011;54511;47.532;19.180;2023-10-13T14:05:17;7.12;;;2.33;;
67717;SDS011;54511;47.532;19.180;2023-10-13T14:07:44;3.22;;;2.12;;
67717;SDS011;54511;47.532;19.180;2023-10-13T14:10:15;6.97;;;2.65;;
67717;SDS011;54511;47.532;19.180;2023-10-13T14:12:56;4.78;;;1.90;;
67717;SDS011;54511;47.532;19.180;2023-10-13T14:15:31;4.72;;;1.70;;
67717;SDS011;54511;47.532;19.180;2023-10-13T14:18:06;4.78;;;2.12;;
67717;SDS011;54511;47.532;19.180;2023-10-13T14:20:39;4.47;;;2.30;;
67717;SDS011;54511;47.532;19.180;2023-10-13T14:23:07;6.53;;;2.28;;
67717;SDS011;54511;47.532;19.180;2023-10-13T14:25:37;8.25;;;2.40;;
67717;SDS011;54511;47.532;19.180;2023-10-13T14:28:09;4.40;;;2.40;;
67717;SDS011;54511;47.532;19.180;2023-10-13T14:30:42;7.10;;;2.53;;
67717;SDS011;54511;47.532;19.180;2023-10-13T14:33:10;4.18;;;2.03;;
67717;SDS011;54511;47.532;19.180;2023-10-13T14:35:38;4.03;;;2.05;;
67717;SDS011;54511;47.532;19.180;2023-10-13T14:38:05;4.72;;;2.45;;
67717;SDS011;54511;47.532;19.180;2023-10-13T14:40:32;5.55;;;2.05;;
67717;SDS011;54511;47.532;19.180;2023-10-13T14:42:59;4.40;;;1.92;;
67717;SDS011;54511;47.532;19.180;2023-10-13T14:45:26;6.60;;;2.10;;
67717;SDS011;54511;47.532;19.180;2023-10-13T14:47:53;2.78;;;1.75;;
67717;SDS011;54511;47.532;19.180;2023-10-13T14:50:21;3.30;;;1.98;;
67717;SDS011;54511;47.532;19.180;2023-10-13T14:52:50;6.97;;;2.55;;
67717;SDS011;54511;47.532;19.180;2023-10-13T14:55:17;3.35;;;1.67;;
67717;SDS011;54511;47.532;19.180;2023-10-13T14:57:47;5.28;;;2.47;;
67717;SDS011;54511;47.532;19.180;2023-10-13T15:00:15;2.53;;;1.92;;
67717;SDS011;54511;47.532;19.180;2023-10-13T15:02:50;2.75;;;1.70;;
67717;SDS011;54511;47.532;19.180;2023-10-13T15:05:17;6.35;;;2.08;;
67717;SDS011;54511;47.532;19.180;2023-10-13T15:07:47;2.35;;;2.08;;
67717;SDS011;54511;47.532;19.180;2023-10-13T15:10:14;6.18;;;2.37;;
67717;SDS011;54511;47.532;19.180;2023-10-13T15:12:41;5.28;;;2.17;;
67717;SDS011;54511;47.532;19.180;2023-10-13T15:15:09;6.25;;;2.45;;
67717;SDS011;54511;47.532;19.180;2023-10-13T15:17:41;4.57;;;2.47;;
67717;SDS011;54511;47.532;19.180;2023-10-13T15:20:08;3.08;;;1.90;;
67717;SDS011;54511;47.532;19.180;2023-10-13T15:22:41;4.10;;;2.05;;
67717;SDS011;54511;47.532;19.180;2023-10-13T15:25:09;1.98;;;1.50;;
67717;SDS011;54511;47.532;19.180;2023-10-13T15:27:46;4.57;;;1.65;;
67717;SDS011;54511;47.532;19.180;2023-10-13T15:30:20;4.07;;;1.60;;
67717;SDS011;54511;47.532;19.180;2023-10-13T15:32:49;5.40;;;2.58;;
67717;SDS011;54511;47.532;19.180;2023-10-13T15:35:16;3.67;;;1.87;;
67717;SDS011;54511;47.532;19.180;2023-10-13T15:37:43;4.22;;;2.15;;
67717;SDS011;54511;47.532;19.180;2023-10-13T15:40:15;2.62;;;1.70;;
67717;SDS011;54511;47.532;19.180;2023-10-13T15:42:42;3.60;;;1.85;;
67717;SDS011;54511;47.532;19.180;2023-10-13T15:45:10;4.35;;;2.17;;
67717;SDS011;54511;47.532;19.180;2023-10-13T15:47:43;3.22;;;2.35;;
67717;SDS011;54511;47.532;19.180;2023-10-13T15:50:12;3.50;;;2.20;;